sensor_id;sensor_type;location;lat;lon;timestamp;pressure;altitude;pressure_sealevel;temperature;humidity
60055;BME280;45930;53.514;55.904;2023-01-29T00:00:10;49627.19;;;-149.77;58.53
60055;BME280;45930;53.514;55.904;2023-01-29T00:01:11;49623.22;;;-149.77;58.65
60055;BME280;45930;53.514;55.904;2023-01-29T00:02:12;49654.91;;;-149.77;58.63
60055;BME280;45930;53.514;55.904;2023-01-29T00:03:14;49623.22;;;-149.77;58.65
60055;BME280;45930;53.514;55.904;2023-01-29T00:04:15;49645.00;;;-149.77;58.69
60055;BME280;45930;53.514;55.904;2023-01-29T00:05:16;49645.00;;;-149.77;58.66
60055;BME280;45930;53.514;55.904;2023-01-29T00:06:18;49585.59;;;-149.77;58.64
60055;BME280;45930;53.514;55.904;2023-01-29T00:07:18;49648.97;;;-149.77;58.24
60055;BME280;45930;53.514;55.904;2023-01-29T00:08:19;49637.09;;;-149.77;58.38
60055;BME280;45930;53.514;55.904;2023-01-29T00:09:22;49623.22;;;-149.77;58.95
60055;BME280;45930;53.514;55.904;2023-01-29T00:10:24;49629.16;;;-149.77;58.87
60055;BME280;45930;53.514;55.904;2023-01-29T00:11:24;49611.34;;;-149.77;58.88
60055;BME280;45930;53.514;55.904;2023-01-29T00:12:25;49629.16;;;-149.77;58.85
60055;BME280;45930;53.514;55.904;2023-01-29T00:13:26;49619.25;;;-149.77;58.80
60055;BME280;45930;53.514;55.904;2023-01-29T00:14:27;49658.88;;;-149.77;59.03
60055;BME280;45930;53.514;55.904;2023-01-29T00:15:28;49631.16;;;-149.77;59.07
60055;BME280;45930;53.514;55.904;2023-01-29T00:16:28;49611.34;;;-149.77;59.05
60055;BME280;45930;53.514;55.904;2023-01-29T00:17:29;49619.25;;;-149.77;58.87
60055;BME280;45930;53.514;55.904;2023-01-29T00:18:30;49631.16;;;-149.77;58.84
60055;BME280;45930;53.514;55.904;2023-01-29T00:19:31;49631.16;;;-149.77;58.92
60055;BME280;45930;53.514;55.904;2023-01-29T00:20:32;49613.31;;;-149.77;58.77
60055;BME280;45930;53.514;55.904;2023-01-29T00:21:33;49623.22;;;-149.77;58.75
60055;BME280;45930;53.514;55.904;2023-01-29T00:22:34;49635.09;;;-149.77;58.74
60055;BME280;45930;53.514;55.904;2023-01-29T00:23:36;49637.09;;;-149.77;58.97
60055;BME280;45930;53.514;55.904;2023-01-29T00:24:37;49615.28;;;-149.77;58.91
60055;BME280;45930;53.514;55.904;2023-01-29T00:25:37;49623.22;;;-149.77;58.45
60055;BME280;45930;53.514;55.904;2023-01-29T00:26:38;49631.16;;;-149.77;58.42
60055;BME280;45930;53.514;55.904;2023-01-29T00:27:39;49648.97;;;-149.77;58.56
60055;BME280;45930;53.514;55.904;2023-01-29T00:28:40;49660.84;;;-149.77;58.73
60055;BME280;45930;53.514;55.904;2023-01-29T00:29:41;49656.91;;;-149.77;58.45
60055;BME280;45930;53.514;55.904;2023-01-29T00:30:43;49639.06;;;-149.77;58.66
60055;BME280;45930;53.514;55.904;2023-01-29T00:31:44;49643.03;;;-149.77;59.04
60055;BME280;45930;53.514;55.904;2023-01-29T00:32:45;49611.34;;;-149.77;59.17
60055;BME280;45930;53.514;55.904;2023-01-29T00:33:47;49635.09;;;-149.77;59.03
60055;BME280;45930;53.514;55.904;2023-01-29T00:34:48;49621.25;;;-149.77;58.95
60055;BME280;45930;53.514;55.904;2023-01-29T00:35:48;49650.94;;;-149.77;58.67
60055;BME280;45930;53.514;55.904;2023-01-29T00:36:49;49637.09;;;-149.77;58.90
60055;BME280;45930;53.514;55.904;2023-01-29T00:37:50;49635.09;;;-149.77;58.77
60055;BME280;45930;53.514;55.904;2023-01-29T00:38:58;49623.22;;;-149.77;59.29
60055;BME280;45930;53.514;55.904;2023-01-29T00:39:58;49654.91;;;-149.77;59.38
60055;BME280;45930;53.514;55.904;2023-01-29T00:42:25;49648.97;;;-149.77;59.22
60055;BME280;45930;53.514;55.904;2023-01-29T00:43:45;49631.16;;;-149.77;59.00
60055;BME280;45930;53.514;55.904;2023-01-29T00:45:04;49654.91;;;-149.77;59.08
60055;BME280;45930;53.514;55.904;2023-01-29T00:46:05;49658.88;;;-149.77;59.01
60055;BME280;45930;53.514;55.904;2023-01-29T00:47:06;49607.38;;;-149.77;59.22
60055;BME280;45930;53.514;55.904;2023-01-29T00:48:25;49654.91;;;-149.77;58.76
60055;BME280;45930;53.514;55.904;2023-01-29T00:49:26;49637.09;;;-149.77;59.16
60055;BME280;45930;53.514;55.904;2023-01-29T00:50:27;49633.13;;;-149.77;59.42
60055;BME280;45930;53.514;55.904;2023-01-29T00:51:27;49611.34;;;-149.77;59.38
60055;BME280;45930;53.514;55.904;2023-01-29T00:52:28;49603.41;;;-149.77;59.22
60055;BME280;45930;53.514;55.904;2023-01-29T00:53:29;49635.09;;;-149.77;58.82
60055;BME280;45930;53.514;55.904;2023-01-29T00:54:30;49639.06;;;-149.77;58.80
60055;BME280;45930;53.514;55.904;2023-01-29T00:55:31;49605.38;;;-149.77;59.17
60055;BME280;45930;53.514;55.904;2023-01-29T00:56:34;49641.06;;;-149.77;59.30
60055;BME280;45930;53.514;55.904;2023-01-29T00:57:36;49660.84;;;-149.77;59.29
60055;BME280;45930;53.514;55.904;2023-01-29T00:58:37;49650.94;;;-149.77;58.94
60055;BME280;45930;53.514;55.904;2023-01-29T00:59:38;49629.16;;;-149.77;58.65
60055;BME280;45930;53.514;55.904;2023-01-29T01:00:39;49652.94;;;-149.77;59.12
60055;BME280;45930;53.514;55.904;2023-01-29T01:01:39;49650.94;;;-149.77;59.29
60055;BME280;45930;53.514;55.904;2023-01-29T01:02:59;49623.22;;;-149.77;58.98
60055;BME280;45930;53.514;55.904;2023-01-29T01:04:06;49643.03;;;-149.77;59.22
60055;BME280;45930;53.514;55.904;2023-01-29T01:05:08;49641.06;;;-149.77;59.56
60055;BME280;45930;53.514;55.904;2023-01-29T01:06:13;49619.25;;;-149.77;59.49
60055;BME280;45930;53.514;55.904;2023-01-29T01:07:14;49621.25;;;-149.77;59.64
60055;BME280;45930;53.514;55.904;2023-01-29T01:08:14;49639.06;;;-149.77;59.70
60055;BME280;45930;53.514;55.904;2023-01-29T01:09:35;49678.69;;;-149.77;59.58
60055;BME280;45930;53.514;55.904;2023-01-29T01:11:04;49617.28;;;-149.77;59.76
60055;BME280;45930;53.514;55.904;2023-01-29T01:12:05;49647.00;;;-149.77;59.54
60055;BME280;45930;53.514;55.904;2023-01-29T01:13:06;49629.16;;;-149.77;59.71
60055;BME280;45930;53.514;55.904;2023-01-29T01:14:08;49627.19;;;-149.77;59.69
60055;BME280;45930;53.514;55.904;2023-01-29T01:15:09;49621.25;;;-149.77;59.86
60055;BME280;45930;53.514;55.904;2023-01-29T01:16:12;49650.94;;;-149.77;59.80
60055;BME280;45930;53.514;55.904;2023-01-29T01:17:13;49639.06;;;-149.77;59.48
60055;BME280;45930;53.514;55.904;2023-01-29T01:18:14;49629.16;;;-149.77;59.72
60055;BME280;45930;53.514;55.904;2023-01-29T01:19:15;49639.06;;;-149.77;59.85
60055;BME280;45930;53.514;55.904;2023-01-29T01:20:16;49629.16;;;-149.77;59.70
60055;BME280;45930;53.514;55.904;2023-01-29T01:21:17;49591.53;;;-149.77;59.54
60055;BME280;45930;53.514;55.904;2023-01-29T01:22:18;49627.19;;;-149.77;59.37
60055;BME280;45930;53.514;55.904;2023-01-29T01:23:19;49658.88;;;-149.77;59.23
60055;BME280;45930;53.514;55.904;2023-01-29T01:24:20;49633.13;;;-149.77;59.51
60055;BME280;45930;53.514;55.904;2023-01-29T01:25:22;49619.25;;;-149.77;59.41
60055;BME280;45930;53.514;55.904;2023-01-29T01:26:23;49633.13;;;-149.77;59.37
60055;BME280;45930;53.514;55.904;2023-01-29T01:27:24;49645.00;;;-149.77;58.70
60055;BME280;45930;53.514;55.904;2023-01-29T01:28:25;49645.00;;;-149.77;59.34
60055;BME280;45930;53.514;55.904;2023-01-29T01:29:26;49613.31;;;-149.77;59.80
60055;BME280;45930;53.514;55.904;2023-01-29T01:30:27;49652.94;;;-149.77;59.76
60055;BME280;45930;53.514;55.904;2023-01-29T01:31:28;49660.84;;;-149.77;59.73
60055;BME280;45930;53.514;55.904;2023-01-29T01:32:29;49645.00;;;-149.77;59.60
60055;BME280;45930;53.514;55.904;2023-01-29T01:33:29;49656.91;;;-149.77;59.78
60055;BME280;45930;53.514;55.904;2023-01-29T01:34:30;49633.13;;;-149.77;59.99
60055;BME280;45930;53.514;55.904;2023-01-29T01:35:31;49619.25;;;-149.77;58.57
60055;BME280;45930;53.514;55.904;2023-01-29T01:36:32;49643.03;;;-149.77;59.10
60055;BME280;45930;53.514;55.904;2023-01-29T01:37:33;49635.09;;;-149.77;59.49
60055;BME280;45930;53.514;55.904;2023-01-29T01:38:36;49627.19;;;-149.77;59.69
60055;BME280;45930;53.514;55.904;2023-01-29T01:39:43;49619.25;;;-149.77;59.35
60055;BME280;45930;53.514;55.904;2023-01-29T01:40:48;49643.03;;;-149.77;59.43
60055;BME280;45930;53.514;55.904;2023-01-29T01:41:49;49639.06;;;-149.77;59.23
60055;BME280;45930;53.514;55.904;2023-01-29T01:42:57;49615.28;;;-149.77;59.79
60055;BME280;45930;53.514;55.904;2023-01-29T01:44:01;49639.06;;;-149.77;59.81
60055;BME280;45930;53.514;55.904;2023-01-29T01:45:03;49627.19;;;-149.77;59.69
60055;BME280;45930;53.514;55.904;2023-01-29T01:46:07;49643.03;;;-149.77;59.47
60055;BME280;45930;53.514;55.904;2023-01-29T01:47:09;49641.06;;;-149.77;58.85
60055;BME280;45930;53.514;55.904;2023-01-29T01:48:16;49631.16;;;-149.77;59.21
60055;BME280;45930;53.514;55.904;2023-01-29T01:49:19;49635.09;;;-149.77;59.05
60055;BME280;45930;53.514;55.904;2023-01-29T01:50:26;49650.94;;;-149.77;59.61
60055;BME280;45930;53.514;55.904;2023-01-29T01:51:31;49650.94;;;-149.77;59.23
60055;BME280;45930;53.514;55.904;2023-01-29T01:52:36;49627.19;;;-149.77;59.29
60055;BME280;45930;53.514;55.904;2023-01-29T01:53:44;49611.34;;;-149.77;59.30
60055;BME280;45930;53.514;55.904;2023-01-29T01:54:50;49615.28;;;-149.77;59.54
60055;BME280;45930;53.514;55.904;2023-01-29T01:56:04;49631.16;;;-149.77;59.78
60055;BME280;45930;53.514;55.904;2023-01-29T01:57:09;49623.22;;;-149.77;59.10
60055;BME280;45930;53.514;55.904;2023-01-29T01:58:42;49633.13;;;-149.77;59.27
60055;BME280;45930;53.514;55.904;2023-01-29T01:59:47;49635.09;;;-149.77;59.26
60055;BME280;45930;53.514;55.904;2023-01-29T02:00:50;49637.09;;;-149.77;59.33
60055;BME280;45930;53.514;55.904;2023-01-29T02:01:52;49631.16;;;-149.77;59.59
60055;BME280;45930;53.514;55.904;2023-01-29T02:02:54;49639.06;;;-149.77;59.38
60055;BME280;45930;53.514;55.904;2023-01-29T02:04:16;49637.09;;;-149.77;58.72
60055;BME280;45930;53.514;55.904;2023-01-29T02:05:36;49625.19;;;-149.77;59.00
60055;BME280;45930;53.514;55.904;2023-01-29T02:06:59;49645.00;;;-149.77;59.05
60055;BME280;45930;53.514;55.904;2023-01-29T02:08:30;49627.19;;;-149.77;59.07
60055;BME280;45930;53.514;55.904;2023-01-29T02:10:03;49639.06;;;-149.77;58.92
60055;BME280;45930;53.514;55.904;2023-01-29T02:11:06;49652.94;;;-149.77;58.99
60055;BME280;45930;53.514;55.904;2023-01-29T02:12:12;49631.16;;;-149.77;58.82
60055;BME280;45930;53.514;55.904;2023-01-29T02:13:14;49621.25;;;-149.77;58.97
60055;BME280;45930;53.514;55.904;2023-01-29T02:14:18;49650.94;;;-149.77;59.41
60055;BME280;45930;53.514;55.904;2023-01-29T02:15:19;49631.16;;;-149.77;59.37
60055;BME280;45930;53.514;55.904;2023-01-29T02:16:21;49617.28;;;-149.77;59.21
60055;BME280;45930;53.514;55.904;2023-01-29T02:17:22;49662.84;;;-149.77;58.97
60055;BME280;45930;53.514;55.904;2023-01-29T02:18:22;49631.16;;;-149.77;58.72
60055;BME280;45930;53.514;55.904;2023-01-29T02:26:43;49615.28;;;-149.77;59.12
60055;BME280;45930;53.514;55.904;2023-01-29T02:29:09;49629.16;;;-149.77;58.73
60055;BME280;45930;53.514;55.904;2023-01-29T02:31:41;49643.03;;;-149.77;58.37
60055;BME280;45930;53.514;55.904;2023-01-29T02:38:03;49611.34;;;-149.77;58.45
60055;BME280;45930;53.514;55.904;2023-01-29T02:39:20;49615.28;;;-149.77;58.78
60055;BME280;45930;53.514;55.904;2023-01-29T02:44:22;49635.09;;;-149.77;58.40
60055;BME280;45930;53.514;55.904;2023-01-29T02:45:34;49629.16;;;-149.77;58.80
60055;BME280;45930;53.514;55.904;2023-01-29T02:51:35;49658.88;;;-149.77;57.98
60055;BME280;45930;53.514;55.904;2023-01-29T02:54:21;49637.09;;;-149.77;57.86
60055;BME280;45930;53.514;55.904;2023-01-29T02:56:59;49635.09;;;-149.77;58.29
60055;BME280;45930;53.514;55.904;2023-01-29T02:58:19;49645.00;;;-149.77;58.05
60055;BME280;45930;53.514;55.904;2023-01-29T02:59:31;49635.09;;;-149.77;58.14
60055;BME280;45930;53.514;55.904;2023-01-29T03:00:38;49650.94;;;-149.77;58.20
60055;BME280;45930;53.514;55.904;2023-01-29T03:01:48;49641.06;;;-149.77;58.23
60055;BME280;45930;53.514;55.904;2023-01-29T03:03:03;49635.09;;;-149.77;58.09
60055;BME280;45930;53.514;55.904;2023-01-29T03:04:10;49611.34;;;-149.77;58.09
60055;BME280;45930;53.514;55.904;2023-01-29T03:05:19;49615.28;;;-149.77;58.14
60055;BME280;45930;53.514;55.904;2023-01-29T03:06:23;49609.34;;;-149.77;58.06
60055;BME280;45930;53.514;55.904;2023-01-29T03:07:30;49631.16;;;-149.77;58.18
60055;BME280;45930;53.514;55.904;2023-01-29T03:08:49;49621.25;;;-149.77;58.46
60055;BME280;45930;53.514;55.904;2023-01-29T03:09:54;49645.00;;;-149.77;58.21
60055;BME280;45930;53.514;55.904;2023-01-29T03:11:00;49639.06;;;-149.77;57.96
60055;BME280;45930;53.514;55.904;2023-01-29T03:12:09;49601.44;;;-149.77;58.18
60055;BME280;45930;53.514;55.904;2023-01-29T03:13:42;49609.34;;;-149.77;57.83
60055;BME280;45930;53.514;55.904;2023-01-29T03:14:46;49633.13;;;-149.77;57.88
60055;BME280;45930;53.514;55.904;2023-01-29T03:16:20;49641.06;;;-149.77;57.84
60055;BME280;45930;53.514;55.904;2023-01-29T03:17:25;49645.00;;;-149.77;57.68
60055;BME280;45930;53.514;55.904;2023-01-29T03:18:34;49615.28;;;-149.77;57.63
60055;BME280;45930;53.514;55.904;2023-01-29T03:19:42;49648.97;;;-149.77;57.85
60055;BME280;45930;53.514;55.904;2023-01-29T03:20:49;49639.06;;;-149.77;57.90
60055;BME280;45930;53.514;55.904;2023-01-29T03:21:55;49615.28;;;-149.77;57.69
60055;BME280;45930;53.514;55.904;2023-01-29T03:23:09;49627.19;;;-149.77;57.90
60055;BME280;45930;53.514;55.904;2023-01-29T03:24:14;49629.16;;;-149.77;58.04
60055;BME280;45930;53.514;55.904;2023-01-29T03:25:35;49623.22;;;-149.77;58.18
60055;BME280;45930;53.514;55.904;2023-01-29T03:26:57;49639.06;;;-149.77;58.12
60055;BME280;45930;53.514;55.904;2023-01-29T03:28:20;49629.16;;;-149.77;58.11
60055;BME280;45930;53.514;55.904;2023-01-29T03:29:41;49633.13;;;-149.77;58.02
60055;BME280;45930;53.514;55.904;2023-01-29T03:31:07;49647.00;;;-149.77;58.23
60055;BME280;45930;53.514;55.904;2023-01-29T03:32:29;49668.78;;;-149.77;58.31
60055;BME280;45930;53.514;55.904;2023-01-29T03:33:32;49647.00;;;-149.77;58.33
60055;BME280;45930;53.514;55.904;2023-01-29T03:34:41;49645.00;;;-149.77;58.07
60055;BME280;45930;53.514;55.904;2023-01-29T03:35:57;49631.16;;;-149.77;57.94
60055;BME280;45930;53.514;55.904;2023-01-29T03:37:34;49648.97;;;-149.77;57.89
60055;BME280;45930;53.514;55.904;2023-01-29T03:38:36;49654.91;;;-149.77;57.70
60055;BME280;45930;53.514;55.904;2023-01-29T03:39:37;49617.28;;;-149.77;57.44
60055;BME280;45930;53.514;55.904;2023-01-29T03:41:52;49615.28;;;-149.77;57.47
60055;BME280;45930;53.514;55.904;2023-01-29T03:43:13;49647.00;;;-149.77;57.76
60055;BME280;45930;53.514;55.904;2023-01-29T03:53:30;49647.00;;;-149.77;57.29
60055;BME280;45930;53.514;55.904;2023-01-29T03:56:08;49611.34;;;-149.77;57.76
60055;BME280;45930;53.514;55.904;2023-01-29T03:57:14;49658.88;;;-149.77;57.85
60055;BME280;45930;53.514;55.904;2023-01-29T03:59:42;49668.78;;;-149.77;57.93
60055;BME280;45930;53.514;55.904;2023-01-29T04:00:55;49643.03;;;-149.77;57.94
60055;BME280;45930;53.514;55.904;2023-01-29T04:01:59;49647.00;;;-149.77;58.08
60055;BME280;45930;53.514;55.904;2023-01-29T04:03:21;49643.03;;;-149.77;58.13
60055;BME280;45930;53.514;55.904;2023-01-29T04:04:26;49635.09;;;-149.77;57.92
60055;BME280;45930;53.514;55.904;2023-01-29T04:05:35;49656.91;;;-149.77;56.63
60055;BME280;45930;53.514;55.904;2023-01-29T04:06:40;49623.22;;;-149.77;57.33
60055;BME280;45930;53.514;55.904;2023-01-29T04:07:43;49643.03;;;-149.77;57.73
60055;BME280;45930;53.514;55.904;2023-01-29T04:10:26;49639.06;;;-149.77;57.98
60055;BME280;45930;53.514;55.904;2023-01-29T04:11:28;49637.09;;;-149.77;58.01
60055;BME280;45930;53.514;55.904;2023-01-29T04:12:36;49647.00;;;-149.77;58.06
60055;BME280;45930;53.514;55.904;2023-01-29T04:13:39;49637.09;;;-149.77;57.83
60055;BME280;45930;53.514;55.904;2023-01-29T04:14:39;49623.22;;;-149.77;57.79
60055;BME280;45930;53.514;55.904;2023-01-29T04:15:46;49627.19;;;-149.77;57.66
60055;BME280;45930;53.514;55.904;2023-01-29T04:16:52;49623.22;;;-149.77;57.49
60055;BME280;45930;53.514;55.904;2023-01-29T04:17:56;49637.09;;;-149.77;57.41
60055;BME280;45930;53.514;55.904;2023-01-29T04:18:57;49615.28;;;-149.77;57.35
60055;BME280;45930;53.514;55.904;2023-01-29T04:20:00;49609.34;;;-149.77;57.24
60055;BME280;45930;53.514;55.904;2023-01-29T04:21:01;49605.38;;;-149.77;56.99
60055;BME280;45930;53.514;55.904;2023-01-29T04:22:09;49641.06;;;-149.77;57.05
60055;BME280;45930;53.514;55.904;2023-01-29T04:23:24;49635.09;;;-149.77;57.19
60055;BME280;45930;53.514;55.904;2023-01-29T04:24:26;49625.19;;;-149.77;57.11
60055;BME280;45930;53.514;55.904;2023-01-29T04:25:36;49645.00;;;-149.77;57.33
60055;BME280;45930;53.514;55.904;2023-01-29T04:27:01;49645.00;;;-149.77;57.13
60055;BME280;45930;53.514;55.904;2023-01-29T04:28:16;49601.44;;;-149.77;57.03
60055;BME280;45930;53.514;55.904;2023-01-29T04:30:53;49623.22;;;-149.77;56.60
60055;BME280;45930;53.514;55.904;2023-01-29T04:33:33;49603.41;;;-149.77;56.38
60055;BME280;45930;53.514;55.904;2023-01-29T04:39:23;49631.16;;;-149.77;55.78
60055;BME280;45930;53.514;55.904;2023-01-29T04:40:48;49621.25;;;-149.77;55.60
60055;BME280;45930;53.514;55.904;2023-01-29T04:42:05;49627.19;;;-149.77;55.35
60055;BME280;45930;53.514;55.904;2023-01-29T04:43:17;49615.28;;;-149.77;55.53
60055;BME280;45930;53.514;55.904;2023-01-29T04:44:41;49627.19;;;-149.77;55.58
60055;BME280;45930;53.514;55.904;2023-01-29T04:47:15;49639.06;;;-149.77;55.62
60055;BME280;45930;53.514;55.904;2023-01-29T04:51:32;49627.19;;;-149.77;55.55
60055;BME280;45930;53.514;55.904;2023-01-29T04:54:07;49621.25;;;-149.77;55.27
60055;BME280;45930;53.514;55.904;2023-01-29T04:55:31;49619.25;;;-149.77;55.20
60055;BME280;45930;53.514;55.904;2023-01-29T04:56:56;49641.06;;;-149.77;55.22
60055;BME280;45930;53.514;55.904;2023-01-29T04:58:13;49621.25;;;-149.77;55.41
60055;BME280;45930;53.514;55.904;2023-01-29T04:59:46;49615.28;;;-149.77;55.41
60055;BME280;45930;53.514;55.904;2023-01-29T05:00:47;49621.25;;;-149.77;54.98
60055;BME280;45930;53.514;55.904;2023-01-29T05:01:49;49637.09;;;-149.77;54.98
60055;BME280;45930;53.514;55.904;2023-01-29T05:02:51;49599.44;;;-149.77;54.86
60055;BME280;45930;53.514;55.904;2023-01-29T05:03:53;49623.22;;;-149.77;55.02
60055;BME280;45930;53.514;55.904;2023-01-29T05:04:56;49633.13;;;-149.77;54.93
60055;BME280;45930;53.514;55.904;2023-01-29T05:05:59;49619.25;;;-149.77;55.02
60055;BME280;45930;53.514;55.904;2023-01-29T05:07:03;49631.16;;;-149.77;54.96
60055;BME280;45930;53.514;55.904;2023-01-29T05:08:06;49619.25;;;-149.77;54.87
60055;BME280;45930;53.514;55.904;2023-01-29T05:09:08;49607.38;;;-149.77;54.64
60055;BME280;45930;53.514;55.904;2023-01-29T05:10:12;49611.34;;;-149.77;54.66
60055;BME280;45930;53.514;55.904;2023-01-29T05:11:16;49633.13;;;-149.77;54.88
60055;BME280;45930;53.514;55.904;2023-01-29T05:12:18;49603.41;;;-149.77;54.76
60055;BME280;45930;53.514;55.904;2023-01-29T05:13:20;49617.28;;;-149.77;54.81
60055;BME280;45930;53.514;55.904;2023-01-29T05:14:22;49589.53;;;-149.77;54.54
60055;BME280;45930;53.514;55.904;2023-01-29T05:15:48;49607.38;;;-149.77;54.68
60055;BME280;45930;53.514;55.904;2023-01-29T05:16:51;49617.28;;;-149.77;54.52
60055;BME280;45930;53.514;55.904;2023-01-29T05:17:55;49637.09;;;-149.77;54.79
60055;BME280;45930;53.514;55.904;2023-01-29T05:19:04;49631.16;;;-149.77;54.79
60055;BME280;45930;53.514;55.904;2023-01-29T05:20:13;49623.22;;;-149.77;54.81
60055;BME280;45930;53.514;55.904;2023-01-29T05:21:22;49617.28;;;-149.77;54.58
60055;BME280;45930;53.514;55.904;2023-01-29T05:22:24;49599.44;;;-149.77;54.80
60055;BME280;45930;53.514;55.904;2023-01-29T05:23:26;49617.28;;;-149.77;54.75
60055;BME280;45930;53.514;55.904;2023-01-29T05:24:26;49615.28;;;-149.77;54.46
60055;BME280;45930;53.514;55.904;2023-01-29T05:25:30;49607.38;;;-149.77;54.70
60055;BME280;45930;53.514;55.904;2023-01-29T05:26:32;49587.56;;;-149.77;54.49
60055;BME280;45930;53.514;55.904;2023-01-29T05:27:51;49633.13;;;-149.77;54.14
60055;BME280;45930;53.514;55.904;2023-01-29T05:29:13;49615.28;;;-149.77;53.74
60055;BME280;45930;53.514;55.904;2023-01-29T05:30:14;49635.09;;;-149.77;53.67
60055;BME280;45930;53.514;55.904;2023-01-29T05:31:15;49629.16;;;-149.77;53.53
60055;BME280;45930;53.514;55.904;2023-01-29T05:32:18;49635.09;;;-149.77;53.37
60055;BME280;45930;53.514;55.904;2023-01-29T05:33:23;49595.50;;;-149.77;53.06
60055;BME280;45930;53.514;55.904;2023-01-29T05:34:24;49597.47;;;-149.77;53.01
60055;BME280;45930;53.514;55.904;2023-01-29T05:35:26;49619.25;;;-149.77;53.17
60055;BME280;45930;53.514;55.904;2023-01-29T05:36:27;49637.09;;;-149.77;53.13
60055;BME280;45930;53.514;55.904;2023-01-29T05:37:28;49613.31;;;-149.77;52.93
60055;BME280;45930;53.514;55.904;2023-01-29T05:38:29;49599.44;;;-149.77;52.88
60055;BME280;45930;53.514;55.904;2023-01-29T05:39:30;49593.50;;;-149.77;52.86
60055;BME280;45930;53.514;55.904;2023-01-29T05:40:30;49637.09;;;-149.77;52.53
60055;BME280;45930;53.514;55.904;2023-01-29T05:41:31;49627.19;;;-149.77;52.46
60055;BME280;45930;53.514;55.904;2023-01-29T05:42:32;49591.53;;;-149.77;52.38
60055;BME280;45930;53.514;55.904;2023-01-29T05:43:33;49609.34;;;-149.77;52.33
60055;BME280;45930;53.514;55.904;2023-01-29T05:44:33;49613.31;;;-149.77;52.39
60055;BME280;45930;53.514;55.904;2023-01-29T05:45:34;49603.41;;;-149.77;52.50
60055;BME280;45930;53.514;55.904;2023-01-29T05:46:35;49591.53;;;-149.77;52.28
60055;BME280;45930;53.514;55.904;2023-01-29T05:47:36;49599.44;;;-149.77;52.55
60055;BME280;45930;53.514;55.904;2023-01-29T05:48:37;49615.28;;;-149.77;52.60
60055;BME280;45930;53.514;55.904;2023-01-29T05:49:37;49621.25;;;-149.77;52.77
60055;BME280;45930;53.514;55.904;2023-01-29T05:50:38;49613.31;;;-149.77;52.45
60055;BME280;45930;53.514;55.904;2023-01-29T05:51:39;49601.44;;;-149.77;52.16
60055;BME280;45930;53.514;55.904;2023-01-29T05:52:40;49603.41;;;-149.77;52.32
60055;BME280;45930;53.514;55.904;2023-01-29T05:53:41;49587.56;;;-149.77;52.38
60055;BME280;45930;53.514;55.904;2023-01-29T05:54:42;49585.59;;;-149.77;52.24
60055;BME280;45930;53.514;55.904;2023-01-29T05:55:44;49583.59;;;-149.77;51.95
60055;BME280;45930;53.514;55.904;2023-01-29T05:56:45;49639.06;;;-149.77;51.93
60055;BME280;45930;53.514;55.904;2023-01-29T05:57:46;49641.06;;;-149.77;52.10
60055;BME280;45930;53.514;55.904;2023-01-29T05:58:46;49583.59;;;-149.77;51.74
60055;BME280;45930;53.514;55.904;2023-01-29T05:59:47;49583.59;;;-149.77;51.70
60055;BME280;45930;53.514;55.904;2023-01-29T06:00:48;49553.88;;;-149.77;51.72
60055;BME280;45930;53.514;55.904;2023-01-29T06:01:49;49607.38;;;-149.77;51.67
60055;BME280;45930;53.514;55.904;2023-01-29T06:02:49;49581.63;;;-149.77;51.80
60055;BME280;45930;53.514;55.904;2023-01-29T06:03:50;49577.66;;;-149.77;51.77
60055;BME280;45930;53.514;55.904;2023-01-29T06:04:51;49585.59;;;-149.77;51.80
60055;BME280;45930;53.514;55.904;2023-01-29T06:05:52;49589.53;;;-149.77;51.90
60055;BME280;45930;53.514;55.904;2023-01-29T06:06:52;49619.25;;;-149.77;51.78
60055;BME280;45930;53.514;55.904;2023-01-29T06:07:53;49603.41;;;-149.77;51.74
60055;BME280;45930;53.514;55.904;2023-01-29T06:08:57;49603.41;;;-149.77;51.23
60055;BME280;45930;53.514;55.904;2023-01-29T06:09:57;49595.50;;;-149.77;51.27
60055;BME280;45930;53.514;55.904;2023-01-29T06:10:58;49603.41;;;-149.77;51.31
60055;BME280;45930;53.514;55.904;2023-01-29T06:11:59;49555.88;;;-149.77;51.35
60055;BME280;45930;53.514;55.904;2023-01-29T06:13:00;49615.28;;;-149.77;51.38
60055;BME280;45930;53.514;55.904;2023-01-29T06:14:00;49617.28;;;-149.77;51.37
60055;BME280;45930;53.514;55.904;2023-01-29T06:15:01;49587.56;;;-149.77;51.18
60055;BME280;45930;53.514;55.904;2023-01-29T06:16:08;49563.78;;;-149.77;51.37
60055;BME280;45930;53.514;55.904;2023-01-29T06:17:09;49577.66;;;-149.77;50.99
60055;BME280;45930;53.514;55.904;2023-01-29T06:18:10;49633.13;;;-149.77;51.06
60055;BME280;45930;53.514;55.904;2023-01-29T06:19:10;49623.22;;;-149.77;51.20
60055;BME280;45930;53.514;55.904;2023-01-29T06:20:12;49599.44;;;-149.77;51.05
60055;BME280;45930;53.514;55.904;2023-01-29T06:21:13;49583.59;;;-149.77;51.39
60055;BME280;45930;53.514;55.904;2023-01-29T06:22:13;49617.28;;;-149.77;51.30
60055;BME280;45930;53.514;55.904;2023-01-29T06:23:14;49603.41;;;-149.77;51.22
60055;BME280;45930;53.514;55.904;2023-01-29T06:24:15;49599.44;;;-149.77;51.12
60055;BME280;45930;53.514;55.904;2023-01-29T06:25:16;49573.69;;;-149.77;51.17
60055;BME280;45930;53.514;55.904;2023-01-29T06:26:16;49565.78;;;-149.77;51.33
60055;BME280;45930;53.514;55.904;2023-01-29T06:27:17;49587.56;;;-149.77;51.36
60055;BME280;45930;53.514;55.904;2023-01-29T06:28:18;49591.53;;;-149.77;51.08
60055;BME280;45930;53.514;55.904;2023-01-29T06:29:19;49579.63;;;-149.77;50.93
60055;BME280;45930;53.514;55.904;2023-01-29T06:30:19;49599.44;;;-149.77;51.20
60055;BME280;45930;53.514;55.904;2023-01-29T06:31:20;49571.72;;;-149.77;51.05